createdAt,value
2022-11-23T00:00:45.839Z,99528.97
2022-11-23T00:05:50.149Z,99534.22
2022-11-23T00:10:53.068Z,99540.25
2022-11-23T00:15:56.245Z,99545.47
2022-11-23T00:21:00.597Z,99548.97
2022-11-23T00:26:03.901Z,99556.59
2022-11-23T00:31:07.415Z,99558.00
2022-11-23T00:36:13.925Z,99571.69
2022-11-23T00:41:19.229Z,99568.88
2022-11-23T00:46:24.863Z,99582.66
2022-11-23T00:51:31.332Z,99581.56
2022-11-23T00:56:36.108Z,99577.25
2022-11-23T01:01:39.367Z,99586.88
2022-11-23T01:06:44.032Z,99586.94
2022-11-23T01:11:47.303Z,99587.69
2022-11-23T01:16:50.871Z,99594.59
2022-11-23T01:21:55.272Z,99589.22
2022-11-23T01:27:00.960Z,99588.22
2022-11-23T01:32:04.787Z,99596.66
2022-11-23T01:37:09.156Z,99598.25
2022-11-23T01:42:17.574Z,99601.56
2022-11-23T01:47:21.135Z,99606.75
2022-11-23T01:52:27.872Z,99609.59
2022-11-23T01:57:37.054Z,99615.63
2022-11-23T02:02:45.078Z,99615.38
2022-11-23T02:07:51.127Z,99622.91
2022-11-23T02:12:54.854Z,99616.56
2022-11-23T02:17:59.661Z,99617.25
2022-11-23T02:23:18.104Z,99625.13
2022-11-23T02:28:26.144Z,99619.09
2022-11-23T02:33:29.197Z,99621.19
2022-11-23T02:38:34.357Z,99630.16
2022-11-23T02:43:38.999Z,99632.19
2022-11-23T02:48:41.944Z,99645.47
2022-11-23T02:53:47.402Z,99641.34
2022-11-23T02:58:51.959Z,99638.13
2022-11-23T03:03:55.122Z,99629.47
2022-11-23T03:08:58.221Z,99636.34
2022-11-23T03:14:03.311Z,99641.25
2022-11-23T03:19:10.202Z,99640.59
2022-11-23T03:24:14.477Z,99643.38
2022-11-23T03:29:19.477Z,99642.53
2022-11-23T03:34:23.620Z,99639.84
2022-11-23T03:39:27.361Z,99646.06
2022-11-23T03:44:51.850Z,99640.03
2022-11-23T03:49:55.244Z,99640.81
2022-11-23T03:54:58.270Z,99644.38
2022-11-23T04:00:02.875Z,99646.19
2022-11-23T04:05:17.184Z,99639.22
2022-11-23T04:10:40.347Z,99657.75
2022-11-23T04:15:52.572Z,99643.94
2022-11-23T04:20:55.600Z,99644.06
2022-11-23T04:25:58.626Z,99650.22
2022-11-23T04:31:03.035Z,99652.97
2022-11-23T04:36:18.675Z,99657.44
2022-11-23T04:41:22.249Z,99647.94
2022-11-23T04:46:26.990Z,99644.47
2022-11-23T04:51:30.515Z,99648.03
2022-11-23T04:56:33.868Z,99648.03
2022-11-23T05:01:38.562Z,99646.25
2022-11-23T05:07:00.538Z,99640.25
2022-11-23T05:12:05.468Z,99639.13
2022-11-23T05:17:10.886Z,99641.63
2022-11-23T05:22:18.503Z,99644.28
2022-11-23T05:27:21.732Z,99646.03
2022-11-23T05:32:26.135Z,99649.50
2022-11-23T05:37:29.432Z,99664.31
2022-11-23T05:42:37.064Z,99658.19
2022-11-23T05:47:52.630Z,99663.44
2022-11-23T05:53:03.148Z,99656.50
2022-11-23T05:58:06.866Z,99670.41
2022-11-23T06:03:12.972Z,99659.81
2022-11-23T06:08:18.610Z,99658.00
2022-11-23T06:13:23.589Z,99661.84
2022-11-23T06:18:28.172Z,99658.69
2022-11-23T06:23:31.364Z,99658.19
2022-11-23T06:28:37.070Z,99659.66
2022-11-23T06:33:41.569Z,99655.84
2022-11-23T06:38:46.166Z,99652.00
2022-11-23T06:43:53.338Z,99658.00
2022-11-23T06:49:09.966Z,99660.47
2022-11-23T06:54:14.125Z,99663.94
2022-11-23T06:59:17.620Z,99676.06
2022-11-23T07:04:22.185Z,99681.47
2022-11-23T07:09:27.697Z,99687.63
2022-11-23T07:14:50.926Z,99697.59
2022-11-23T07:19:55.347Z,99707.94
2022-11-23T07:24:58.424Z,99709.63
2022-11-23T07:30:01.469Z,99716.09
2022-11-23T07:35:06.789Z,99724.34
2022-11-23T07:40:16.093Z,99737.41
2022-11-23T07:45:20.508Z,99737.53
2022-11-23T07:50:31.823Z,99749.25
2022-11-23T07:55:35.343Z,99761.78
2022-11-23T08:00:38.845Z,99767.28
2022-11-23T08:05:43.485Z,99749.00
2022-11-23T08:10:53.254Z,99764.66
2022-11-23T08:15:58.195Z,99756.94
2022-11-23T08:21:02.946Z,99749.09
2022-11-23T08:26:13.176Z,99754.59
2022-11-23T08:31:16.807Z,99757.72
2022-11-23T08:36:21.343Z,99750.78
2022-11-23T08:41:24.282Z,99754.66
2022-11-23T08:46:27.413Z,99745.88
2022-11-23T08:51:32.181Z,99743.78
2022-11-23T08:56:35.226Z,99751.66
2022-11-23T09:01:38.428Z,99742.88
2022-11-23T09:06:42.851Z,99743.91
2022-11-23T09:11:46.106Z,99737.94
2022-11-23T09:16:49.342Z,99729.53
2022-11-23T09:21:54.132Z,99723.69
2022-11-23T09:26:58.479Z,99713.50
2022-11-23T09:32:03.287Z,99704.25
2022-11-23T09:37:07.628Z,99686.97
2022-11-23T09:42:42.907Z,99682.06
2022-11-23T09:48:12.902Z,99665.69
2022-11-23T09:53:23.655Z,99679.91
2022-11-23T09:58:32.384Z,99670.53
2022-11-23T10:03:40.593Z,99676.03
2022-11-23T10:08:56.661Z,99677.19
2022-11-23T10:14:08.997Z,99676.66
2022-11-23T10:19:22.798Z,99676.56
2022-11-23T10:24:34.666Z,99670.31
2022-11-23T10:29:39.721Z,99678.88
2022-11-23T10:34:53.585Z,99692.88
2022-11-23T10:39:58.262Z,99693.88
2022-11-23T10:45:02.464Z,99688.66
2022-11-23T10:50:22.089Z,99673.88
2022-11-23T10:55:30.891Z,99678.19
2022-11-23T11:00:33.955Z,99670.38
2022-11-23T11:06:07.533Z,99658.22
2022-11-23T11:11:07.354Z,99654.78
2022-11-23T11:16:21.433Z,99636.44
2022-11-23T11:21:29.119Z,99616.19
2022-11-23T11:26:36.176Z,99611.03
2022-11-23T11:31:52.390Z,99593.75
2022-11-23T11:37:10.504Z,99588.44
2022-11-23T11:42:21.840Z,99591.91
2022-11-23T11:47:32.374Z,99579.75
2022-11-23T11:52:39.396Z,99571.88
2022-11-23T11:57:47.189Z,99565.84
2022-11-23T12:02:57.249Z,99564.06
2022-11-23T12:08:07.898Z,99564.19
2022-11-23T12:13:17.008Z,99556.47
2022-11-23T12:18:50.014Z,99553.19
2022-11-23T12:24:02.853Z,99547.06
2022-11-23T12:29:24.777Z,99540.03
2022-11-23T12:34:55.525Z,99545.25
2022-11-23T12:40:14.089Z,99526.81
2022-11-23T12:45:37.037Z,99520.03
2022-11-23T12:50:45.040Z,99523.69
2022-11-23T12:55:55.202Z,99527.22
2022-11-23T13:01:06.166Z,99522.06
2022-11-23T13:06:37.658Z,99531.63
2022-11-23T13:11:58.721Z,99547.28
2022-11-23T13:17:26.680Z,99547.91
2022-11-23T13:22:32.145Z,99565.78
2022-11-23T13:27:46.424Z,99570.47
2022-11-23T13:32:58.119Z,99573.69
2022-11-23T13:38:38.982Z,99578.81
2022-11-23T13:43:42.383Z,99581.03
2022-11-23T13:49:03.129Z,99590.31
2022-11-23T13:54:20.775Z,99593.69
2022-11-23T13:59:31.328Z,99598.81
2022-11-23T14:04:37.310Z,99610.09
2022-11-23T14:09:47.271Z,99610.81
2022-11-23T14:14:57.179Z,99608.94
2022-11-23T14:20:34.484Z,99595.63
2022-11-23T14:25:49.156Z,99601.63
2022-11-23T14:31:06.054Z,99618.94
2022-11-23T14:36:22.850Z,99608.25
2022-11-23T14:41:29.699Z,99597.63
2022-11-23T14:46:32.968Z,99605.38
2022-11-23T14:51:43.288Z,99609.53
2022-11-23T14:56:48.498Z,99624.34
2022-11-23T15:01:54.577Z,99627.84
2022-11-23T15:07:05.332Z,99627.78
2022-11-23T15:12:10.153Z,99631.19
2022-11-23T15:17:18.528Z,99620.72
2022-11-23T15:22:24.643Z,99637.16
2022-11-23T15:27:29.623Z,99642.41
2022-11-23T15:32:35.121Z,99654.59
2022-11-23T15:37:45.745Z,99655.47
2022-11-23T15:42:51.220Z,99662.41
2022-11-23T15:47:54.519Z,99673.75
2022-11-23T15:53:00.821Z,99676.38
2022-11-23T15:58:07.739Z,99687.66
2022-11-23T16:03:31.802Z,99704.28
2022-11-23T16:08:37.745Z,99707.78
2022-11-23T16:13:41.165Z,99716.44
2022-11-23T16:18:46.180Z,99725.19
2022-11-23T16:23:54.452Z,99732.16
2022-11-23T16:28:59.575Z,99750.53
2022-11-23T16:34:02.592Z,99749.69
2022-11-23T16:39:06.923Z,99754.91
2022-11-23T16:44:09.973Z,99765.53
2022-11-23T16:49:17.306Z,99763.03
2022-11-23T16:54:24.863Z,99773.59
2022-11-23T16:59:28.821Z,99783.25
2022-11-23T17:04:32.267Z,99782.22
2022-11-23T17:09:37.084Z,99799.44
2022-11-23T17:14:40.908Z,99808.72
2022-11-23T17:19:48.143Z,99822.41
2022-11-23T17:24:54.552Z,99822.97
2022-11-23T17:29:59.794Z,99827.97
2022-11-23T17:35:02.794Z,99835.59
2022-11-23T17:40:15.963Z,99845.03
2022-11-23T17:45:19.013Z,99851.03
2022-11-23T17:50:22.042Z,99862.28
2022-11-23T17:55:27.652Z,99871.72
2022-11-23T18:00:31.879Z,99881.09
2022-11-23T18:05:38.020Z,99890.47
2022-11-23T18:10:42.502Z,99899.00
2022-11-23T18:15:45.651Z,99918.00
2022-11-23T18:20:50.071Z,99914.34
2022-11-23T18:26:01.277Z,99916.75
2022-11-23T18:31:04.292Z,99920.84
2022-11-23T18:36:07.974Z,99925.09
2022-11-23T18:41:13.488Z,99926.75
2022-11-23T18:46:19.491Z,99924.81
2022-11-23T18:51:23.618Z,99938.63
2022-11-23T18:56:28.072Z,99954.13
2022-11-23T19:01:31.079Z,99965.28
2022-11-23T19:06:34.472Z,99971.16
2022-11-23T19:11:39.052Z,99971.00
2022-11-23T19:16:42.315Z,99972.66
2022-11-23T19:21:47.223Z,99976.03
2022-11-23T19:26:51.858Z,99978.59
2022-11-23T19:31:55.283Z,99983.75
2022-11-23T19:36:58.315Z,99969.72
2022-11-23T19:42:03.554Z,99988.97
2022-11-23T19:47:13.667Z,100007.31
2022-11-23T19:52:17.680Z,100003.16
2022-11-23T19:57:22.637Z,99991.22
2022-11-23T20:02:26.721Z,99998.06
2022-11-23T20:07:32.054Z,100022.38
2022-11-23T20:12:36.454Z,100019.75
2022-11-23T20:17:39.423Z,100033.88
2022-11-23T20:22:44.902Z,100029.00
2022-11-23T20:27:49.297Z,100040.47
2022-11-23T20:32:52.382Z,100048.56
2022-11-23T20:37:55.400Z,100043.47
2022-11-23T20:43:00.139Z,100052.47
2022-11-23T20:48:03.371Z,100060.06
2022-11-23T20:53:06.777Z,100070.22
2022-11-23T20:58:11.421Z,100073.47
2022-11-23T21:03:14.770Z,100078.56
2022-11-23T21:08:30.276Z,100088.00
2022-11-23T21:13:55.543Z,100091.44
2022-11-23T21:18:58.545Z,100081.75
2022-11-23T21:24:01.741Z,100098.22
2022-11-23T21:29:09.719Z,100098.22
2022-11-23T21:34:19.673Z,100111.25
2022-11-23T21:39:23.889Z,100120.75
2022-11-23T21:44:28.342Z,100134.75
2022-11-23T21:49:31.873Z,100129.53
2022-11-23T21:54:35.172Z,100139.22
2022-11-23T21:59:40.056Z,100140.41
2022-11-23T22:04:43.100Z,100150.53
2022-11-23T22:09:46.345Z,100150.56
2022-11-23T22:14:53.772Z,100147.91
2022-11-23T22:19:56.951Z,100159.34
2022-11-23T22:25:02.942Z,100163.06
2022-11-23T22:30:09.682Z,100177.19
2022-11-23T22:35:13.414Z,100183.31
2022-11-23T22:40:19.931Z,100188.31
2022-11-23T22:45:24.385Z,100195.34
2022-11-23T22:50:27.917Z,100197.00
2022-11-23T22:55:34.208Z,100203.94
2022-11-23T23:00:38.801Z,100211.84
2022-11-23T23:05:41.762Z,100224.84
2022-11-23T23:10:44.935Z,100238.91
2022-11-23T23:15:49.977Z,100246.94
2022-11-23T23:20:52.986Z,100259.66
2022-11-23T23:25:56.519Z,100264.59
2022-11-23T23:31:03.206Z,100256.03
2022-11-23T23:36:08.483Z,100249.03
2022-11-23T23:41:12.693Z,100235.00
2022-11-23T23:46:17.707Z,100232.88
2022-11-23T23:51:22.823Z,100245.78
2022-11-23T23:56:28.181Z,100251.53
